sensor_id;sensor_type;location;lat;lon;timestamp;P1;durP1;ratioP1;P2;durP2;ratioP2
35150;SDS011;55720;51.972;4.624;2022-07-29T00:00:06;3.95;;;1.13;;
35150;SDS011;55720;51.972;4.624;2022-07-29T00:02:33;1.58;;;1.20;;
35150;SDS011;55720;51.972;4.624;2022-07-29T00:04:59;1.17;;;0.75;;
35150;SDS011;55720;51.972;4.624;2022-07-29T00:07:24;4.68;;;0.85;;
35150;SDS011;55720;51.972;4.624;2022-07-29T00:09:50;3.08;;;1.20;;
35150;SDS011;55720;51.972;4.624;2022-07-29T00:12:16;3.15;;;0.95;;
35150;SDS011;55720;51.972;4.624;2022-07-29T00:14:41;1.52;;;1.00;;
35150;SDS011;55720;51.972;4.624;2022-07-29T00:17:07;3.05;;;1.23;;
35150;SDS011;55720;51.972;4.624;2022-07-29T00:19:32;1.23;;;0.95;;
35150;SDS011;55720;51.972;4.624;2022-07-29T00:21:59;4.97;;;0.90;;
35150;SDS011;55720;51.972;4.624;2022-07-29T00:24:24;2.72;;;0.98;;
35150;SDS011;55720;51.972;4.624;2022-07-29T00:26:50;2.55;;;1.10;;
35150;SDS011;55720;51.972;4.624;2022-07-29T00:29:15;2.20;;;1.25;;
35150;SDS011;55720;51.972;4.624;2022-07-29T00:31:40;7.25;;;1.17;;
35150;SDS011;55720;51.972;4.624;2022-07-29T00:34:06;3.20;;;1.15;;
35150;SDS011;55720;51.972;4.624;2022-07-29T00:36:51;2.88;;;1.10;;
35150;SDS011;55720;51.972;4.624;2022-07-29T00:39:16;4.88;;;1.00;;
35150;SDS011;55720;51.972;4.624;2022-07-29T00:41:42;2.50;;;1.15;;
35150;SDS011;55720;51.972;4.624;2022-07-29T00:44:07;4.55;;;1.02;;
35150;SDS011;55720;51.972;4.624;2022-07-29T00:46:32;1.35;;;0.90;;
35150;SDS011;55720;51.972;4.624;2022-07-29T00:48:58;3.28;;;1.10;;
35150;SDS011;55720;51.972;4.624;2022-07-29T00:51:24;5.20;;;0.95;;
35150;SDS011;55720;51.972;4.624;2022-07-29T00:53:51;1.88;;;0.98;;
35150;SDS011;55720;51.972;4.624;2022-07-29T00:56:17;2.53;;;0.98;;
35150;SDS011;55720;51.972;4.624;2022-07-29T00:58:43;3.13;;;1.13;;
35150;SDS011;55720;51.972;4.624;2022-07-29T01:01:11;2.40;;;1.00;;
35150;SDS011;55720;51.972;4.624;2022-07-29T01:03:37;1.77;;;1.17;;
35150;SDS011;55720;51.972;4.624;2022-07-29T01:06:02;2.78;;;1.08;;
35150;SDS011;55720;51.972;4.624;2022-07-29T01:08:29;1.65;;;1.10;;
35150;SDS011;55720;51.972;4.624;2022-07-29T01:10:57;2.30;;;1.00;;
35150;SDS011;55720;51.972;4.624;2022-07-29T01:13:23;4.95;;;1.13;;
35150;SDS011;55720;51.972;4.624;2022-07-29T01:15:51;4.22;;;1.17;;
35150;SDS011;55720;51.972;4.624;2022-07-29T01:18:29;1.50;;;1.00;;
35150;SDS011;55720;51.972;4.624;2022-07-29T01:29:02;1.63;;;1.08;;
35150;SDS011;55720;51.972;4.624;2022-07-29T01:31:38;1.45;;;1.10;;
35150;SDS011;55720;51.972;4.624;2022-07-29T01:34:09;1.13;;;1.05;;
35150;SDS011;55720;51.972;4.624;2022-07-29T01:36:43;2.38;;;1.10;;
35150;SDS011;55720;51.972;4.624;2022-07-29T01:39:17;1.60;;;1.05;;
35150;SDS011;55720;51.972;4.624;2022-07-29T01:41:49;3.15;;;1.23;;
35150;SDS011;55720;51.972;4.624;2022-07-29T01:44:27;4.35;;;1.35;;
35150;SDS011;55720;51.972;4.624;2022-07-29T01:47:02;2.17;;;0.98;;
35150;SDS011;55720;51.972;4.624;2022-07-29T01:49:36;1.77;;;1.60;;
35150;SDS011;55720;51.972;4.624;2022-07-29T01:52:07;3.53;;;1.00;;
35150;SDS011;55720;51.972;4.624;2022-07-29T01:54:45;2.60;;;1.20;;
35150;SDS011;55720;51.972;4.624;2022-07-29T01:57:16;1.30;;;1.20;;
35150;SDS011;55720;51.972;4.624;2022-07-29T01:59:46;1.33;;;1.13;;
35150;SDS011;55720;51.972;4.624;2022-07-29T02:02:14;1.33;;;1.23;;
35150;SDS011;55720;51.972;4.624;2022-07-29T02:04:41;1.77;;;1.48;;
35150;SDS011;55720;51.972;4.624;2022-07-29T02:07:10;3.05;;;1.65;;
35150;SDS011;55720;51.972;4.624;2022-07-29T02:09:39;1.20;;;1.10;;
35150;SDS011;55720;51.972;4.624;2022-07-29T02:12:06;1.10;;;1.00;;
35150;SDS011;55720;51.972;4.624;2022-07-29T02:14:34;3.22;;;1.30;;
35150;SDS011;55720;51.972;4.624;2022-07-29T02:17:03;3.13;;;1.20;;
35150;SDS011;55720;51.972;4.624;2022-07-29T02:19:29;4.05;;;1.52;;
35150;SDS011;55720;51.972;4.624;2022-07-29T02:21:57;2.63;;;1.45;;
35150;SDS011;55720;51.972;4.624;2022-07-29T02:24:23;3.22;;;1.38;;
35150;SDS011;55720;51.972;4.624;2022-07-29T02:26:50;3.85;;;1.33;;
35150;SDS011;55720;51.972;4.624;2022-07-29T02:29:18;3.50;;;1.10;;
35150;SDS011;55720;51.972;4.624;2022-07-29T02:31:50;1.45;;;1.17;;
35150;SDS011;55720;51.972;4.624;2022-07-29T02:34:18;1.30;;;1.20;;
35150;SDS011;55720;51.972;4.624;2022-07-29T02:36:46;2.35;;;1.20;;
35150;SDS011;55720;51.972;4.624;2022-07-29T02:39:12;2.33;;;1.40;;
35150;SDS011;55720;51.972;4.624;2022-07-29T02:41:41;1.80;;;1.40;;
35150;SDS011;55720;51.972;4.624;2022-07-29T02:44:13;2.60;;;1.57;;
35150;SDS011;55720;51.972;4.624;2022-07-29T02:55:29;1.30;;;1.20;;
35150;SDS011;55720;51.972;4.624;2022-07-29T02:58:02;3.90;;;1.60;;
35150;SDS011;55720;51.972;4.624;2022-07-29T03:00:31;1.40;;;1.30;;
35150;SDS011;55720;51.972;4.624;2022-07-29T03:03:03;2.28;;;1.50;;
35150;SDS011;55720;51.972;4.624;2022-07-29T03:05:32;2.42;;;1.38;;
35150;SDS011;55720;51.972;4.624;2022-07-29T03:08:00;2.67;;;1.70;;
35150;SDS011;55720;51.972;4.624;2022-07-29T03:10:28;7.72;;;1.70;;
35150;SDS011;55720;51.972;4.624;2022-07-29T03:12:54;5.38;;;1.27;;
35150;SDS011;55720;51.972;4.624;2022-07-29T03:15:20;2.35;;;1.40;;
35150;SDS011;55720;51.972;4.624;2022-07-29T03:17:46;4.63;;;1.65;;
35150;SDS011;55720;51.972;4.624;2022-07-29T03:20:14;4.60;;;1.60;;
35150;SDS011;55720;51.972;4.624;2022-07-29T03:22:41;5.30;;;1.73;;
35150;SDS011;55720;51.972;4.624;2022-07-29T03:25:09;2.30;;;1.65;;
35150;SDS011;55720;51.972;4.624;2022-07-29T03:27:36;2.00;;;1.50;;
35150;SDS011;55720;51.972;4.624;2022-07-29T03:30:01;4.45;;;1.60;;
35150;SDS011;55720;51.972;4.624;2022-07-29T03:32:27;3.95;;;1.65;;
35150;SDS011;55720;51.972;4.624;2022-07-29T03:34:52;2.40;;;2.00;;
35150;SDS011;55720;51.972;4.624;2022-07-29T03:37:18;2.55;;;1.70;;
35150;SDS011;55720;51.972;4.624;2022-07-29T03:39:43;3.95;;;1.83;;
35150;SDS011;55720;51.972;4.624;2022-07-29T03:42:10;2.63;;;1.80;;
35150;SDS011;55720;51.972;4.624;2022-07-29T03:44:38;2.47;;;2.17;;
35150;SDS011;55720;51.972;4.624;2022-07-29T03:47:06;2.85;;;1.73;;
35150;SDS011;55720;51.972;4.624;2022-07-29T03:49:34;3.17;;;1.98;;
35150;SDS011;55720;51.972;4.624;2022-07-29T03:52:02;3.17;;;1.75;;
35150;SDS011;55720;51.972;4.624;2022-07-29T03:54:29;1.90;;;1.75;;
35150;SDS011;55720;51.972;4.624;2022-07-29T03:56:54;4.45;;;1.80;;
35150;SDS011;55720;51.972;4.624;2022-07-29T03:59:24;2.67;;;2.03;;
35150;SDS011;55720;51.972;4.624;2022-07-29T04:01:50;7.45;;;1.95;;
35150;SDS011;55720;51.972;4.624;2022-07-29T04:04:16;3.65;;;1.77;;
35150;SDS011;55720;51.972;4.624;2022-07-29T04:06:42;3.03;;;2.20;;
35150;SDS011;55720;51.972;4.624;2022-07-29T04:09:09;2.35;;;2.15;;
35150;SDS011;55720;51.972;4.624;2022-07-29T04:11:35;4.65;;;2.10;;
35150;SDS011;55720;51.972;4.624;2022-07-29T04:14:01;3.70;;;2.00;;
35150;SDS011;55720;51.972;4.624;2022-07-29T04:16:26;5.68;;;2.30;;
35150;SDS011;55720;51.972;4.624;2022-07-29T04:18:52;4.35;;;2.00;;
35150;SDS011;55720;51.972;4.624;2022-07-29T04:21:17;5.72;;;2.30;;
35150;SDS011;55720;51.972;4.624;2022-07-29T04:23:43;8.50;;;2.20;;
35150;SDS011;55720;51.972;4.624;2022-07-29T04:26:10;3.08;;;2.00;;
35150;SDS011;55720;51.972;4.624;2022-07-29T04:28:35;3.63;;;2.30;;
35150;SDS011;55720;51.972;4.624;2022-07-29T04:31:01;4.50;;;2.40;;
35150;SDS011;55720;51.972;4.624;2022-07-29T04:33:26;2.85;;;2.17;;
35150;SDS011;55720;51.972;4.624;2022-07-29T04:35:52;3.97;;;2.38;;
35150;SDS011;55720;51.972;4.624;2022-07-29T04:38:17;4.03;;;2.47;;
35150;SDS011;55720;51.972;4.624;2022-07-29T04:40:43;3.30;;;2.10;;
35150;SDS011;55720;51.972;4.624;2022-07-29T04:43:08;4.72;;;2.08;;
35150;SDS011;55720;51.972;4.624;2022-07-29T04:45:33;9.68;;;2.28;;
35150;SDS011;55720;51.972;4.624;2022-07-29T04:47:59;5.78;;;2.50;;
35150;SDS011;55720;51.972;4.624;2022-07-29T04:50:24;6.50;;;2.28;;
35150;SDS011;55720;51.972;4.624;2022-07-29T04:52:50;7.05;;;2.53;;
35150;SDS011;55720;51.972;4.624;2022-07-29T04:55:15;6.65;;;2.50;;
35150;SDS011;55720;51.972;4.624;2022-07-29T04:57:40;4.25;;;2.40;;
35150;SDS011;55720;51.972;4.624;2022-07-29T05:00:06;8.73;;;2.78;;
35150;SDS011;55720;51.972;4.624;2022-07-29T05:02:32;6.15;;;2.55;;
35150;SDS011;55720;51.972;4.624;2022-07-29T05:04:57;3.67;;;2.50;;
35150;SDS011;55720;51.972;4.624;2022-07-29T05:07:23;5.93;;;2.20;;
35150;SDS011;55720;51.972;4.624;2022-07-29T05:09:48;4.47;;;2.05;;
35150;SDS011;55720;51.972;4.624;2022-07-29T05:12:14;3.67;;;1.90;;
35150;SDS011;55720;51.972;4.624;2022-07-29T05:14:39;3.67;;;2.20;;
35150;SDS011;55720;51.972;4.624;2022-07-29T05:17:04;3.38;;;2.17;;
35150;SDS011;55720;51.972;4.624;2022-07-29T05:19:30;4.85;;;2.30;;
35150;SDS011;55720;51.972;4.624;2022-07-29T05:21:55;5.80;;;3.00;;
35150;SDS011;55720;51.972;4.624;2022-07-29T05:24:21;6.68;;;2.08;;
35150;SDS011;55720;51.972;4.624;2022-07-29T05:26:46;3.38;;;2.35;;
35150;SDS011;55720;51.972;4.624;2022-07-29T05:29:11;4.13;;;2.10;;
35150;SDS011;55720;51.972;4.624;2022-07-29T05:31:37;3.28;;;2.17;;
35150;SDS011;55720;51.972;4.624;2022-07-29T05:34:02;4.03;;;1.83;;
35150;SDS011;55720;51.972;4.624;2022-07-29T05:36:27;4.38;;;1.98;;
35150;SDS011;55720;51.972;4.624;2022-07-29T05:38:54;3.40;;;1.77;;
35150;SDS011;55720;51.972;4.624;2022-07-29T05:41:19;5.43;;;1.95;;
35150;SDS011;55720;51.972;4.624;2022-07-29T05:43:44;3.30;;;1.98;;
35150;SDS011;55720;51.972;4.624;2022-07-29T05:46:10;4.50;;;1.65;;
35150;SDS011;55720;51.972;4.624;2022-07-29T05:48:35;3.75;;;1.90;;
35150;SDS011;55720;51.972;4.624;2022-07-29T05:51:01;11.77;;;2.10;;
35150;SDS011;55720;51.972;4.624;2022-07-29T05:53:27;4.75;;;1.70;;
35150;SDS011;55720;51.972;4.624;2022-07-29T05:55:52;3.75;;;1.40;;
35150;SDS011;55720;51.972;4.624;2022-07-29T05:58:18;4.70;;;2.17;;
35150;SDS011;55720;51.972;4.624;2022-07-29T06:00:43;5.15;;;1.35;;
35150;SDS011;55720;51.972;4.624;2022-07-29T06:03:09;2.08;;;1.73;;
35150;SDS011;55720;51.972;4.624;2022-07-29T06:05:34;2.25;;;1.50;;
35150;SDS011;55720;51.972;4.624;2022-07-29T06:08:00;4.60;;;1.45;;
35150;SDS011;55720;51.972;4.624;2022-07-29T06:10:25;2.65;;;1.40;;
35150;SDS011;55720;51.972;4.624;2022-07-29T06:12:51;5.53;;;1.90;;
35150;SDS011;55720;51.972;4.624;2022-07-29T06:15:17;6.38;;;1.63;;
35150;SDS011;55720;51.972;4.624;2022-07-29T06:17:42;2.60;;;1.50;;
35150;SDS011;55720;51.972;4.624;2022-07-29T06:20:08;4.70;;;1.55;;
35150;SDS011;55720;51.972;4.624;2022-07-29T06:22:34;2.20;;;1.45;;
35150;SDS011;55720;51.972;4.624;2022-07-29T06:25:00;3.05;;;2.50;;
35150;SDS011;55720;51.972;4.624;2022-07-29T06:27:26;2.25;;;1.40;;
35150;SDS011;55720;51.972;4.624;2022-07-29T06:29:51;1.65;;;1.25;;
35150;SDS011;55720;51.972;4.624;2022-07-29T06:32:17;6.65;;;1.80;;
35150;SDS011;55720;51.972;4.624;2022-07-29T06:34:42;7.18;;;1.60;;
35150;SDS011;55720;51.972;4.624;2022-07-29T06:37:08;4.75;;;1.52;;
35150;SDS011;55720;51.972;4.624;2022-07-29T06:39:36;2.25;;;1.30;;
35150;SDS011;55720;51.972;4.624;2022-07-29T06:42:03;4.90;;;1.40;;
35150;SDS011;55720;51.972;4.624;2022-07-29T06:44:29;3.53;;;1.50;;
35150;SDS011;55720;51.972;4.624;2022-07-29T06:46:55;3.78;;;1.38;;
35150;SDS011;55720;51.972;4.624;2022-07-29T06:49:21;2.28;;;1.52;;
35150;SDS011;55720;51.972;4.624;2022-07-29T06:51:46;3.67;;;1.33;;
35150;SDS011;55720;51.972;4.624;2022-07-29T06:54:12;4.68;;;1.50;;
35150;SDS011;55720;51.972;4.624;2022-07-29T06:56:37;2.85;;;1.42;;
35150;SDS011;55720;51.972;4.624;2022-07-29T06:59:06;2.35;;;1.38;;
35150;SDS011;55720;51.972;4.624;2022-07-29T07:01:33;1.67;;;1.23;;
35150;SDS011;55720;51.972;4.624;2022-07-29T07:03:59;4.63;;;1.08;;
35150;SDS011;55720;51.972;4.624;2022-07-29T07:06:25;3.30;;;1.15;;
35150;SDS011;55720;51.972;4.624;2022-07-29T07:08:50;1.15;;;1.02;;
35150;SDS011;55720;51.972;4.624;2022-07-29T07:11:16;2.03;;;1.23;;
35150;SDS011;55720;51.972;4.624;2022-07-29T07:13:41;3.47;;;1.20;;
35150;SDS011;55720;51.972;4.624;2022-07-29T07:16:06;3.08;;;1.02;;
35150;SDS011;55720;51.972;4.624;2022-07-29T07:18:32;2.78;;;1.42;;
35150;SDS011;55720;51.972;4.624;2022-07-29T07:20:57;2.67;;;1.08;;
35150;SDS011;55720;51.972;4.624;2022-07-29T07:23:23;2.20;;;1.15;;
35150;SDS011;55720;51.972;4.624;2022-07-29T07:25:49;2.83;;;1.42;;
35150;SDS011;55720;51.972;4.624;2022-07-29T07:28:14;2.50;;;1.00;;
35150;SDS011;55720;51.972;4.624;2022-07-29T07:30:40;1.88;;;1.20;;
35150;SDS011;55720;51.972;4.624;2022-07-29T07:33:05;1.30;;;1.10;;
35150;SDS011;55720;51.972;4.624;2022-07-29T07:35:31;3.13;;;1.35;;
35150;SDS011;55720;51.972;4.624;2022-07-29T07:37:56;5.05;;;1.17;;
35150;SDS011;55720;51.972;4.624;2022-07-29T07:40:22;3.65;;;1.65;;
35150;SDS011;55720;51.972;4.624;2022-07-29T07:42:47;2.15;;;1.00;;
35150;SDS011;55720;51.972;4.624;2022-07-29T07:45:13;3.83;;;1.30;;
35150;SDS011;55720;51.972;4.624;2022-07-29T07:47:38;2.15;;;0.90;;
35150;SDS011;55720;51.972;4.624;2022-07-29T07:50:05;4.63;;;1.45;;
35150;SDS011;55720;51.972;4.624;2022-07-29T07:52:32;5.28;;;1.30;;
35150;SDS011;55720;51.972;4.624;2022-07-29T07:54:58;4.32;;;1.60;;
35150;SDS011;55720;51.972;4.624;2022-07-29T07:57:24;2.67;;;1.58;;
35150;SDS011;55720;51.972;4.624;2022-07-29T07:59:50;3.03;;;1.40;;
35150;SDS011;55720;51.972;4.624;2022-07-29T08:02:15;7.20;;;1.45;;
35150;SDS011;55720;51.972;4.624;2022-07-29T08:04:41;1.60;;;1.20;;
35150;SDS011;55720;51.972;4.624;2022-07-29T08:07:06;3.70;;;1.30;;
35150;SDS011;55720;51.972;4.624;2022-07-29T08:09:33;4.10;;;1.30;;
35150;SDS011;55720;51.972;4.624;2022-07-29T08:11:59;3.92;;;1.50;;
35150;SDS011;55720;51.972;4.624;2022-07-29T08:14:28;3.05;;;1.40;;
35150;SDS011;55720;51.972;4.624;2022-07-29T08:16:54;1.10;;;1.00;;
35150;SDS011;55720;51.972;4.624;2022-07-29T08:19:19;2.42;;;1.40;;
35150;SDS011;55720;51.972;4.624;2022-07-29T08:21:45;1.40;;;1.30;;
35150;SDS011;55720;51.972;4.624;2022-07-29T08:24:10;4.18;;;1.67;;
35150;SDS011;55720;51.972;4.624;2022-07-29T08:26:54;4.25;;;1.38;;
35150;SDS011;55720;51.972;4.624;2022-07-29T08:29:19;2.70;;;1.10;;
35150;SDS011;55720;51.972;4.624;2022-07-29T08:31:44;1.98;;;1.20;;
35150;SDS011;55720;51.972;4.624;2022-07-29T08:34:10;2.88;;;1.20;;
35150;SDS011;55720;51.972;4.624;2022-07-29T08:36:36;2.55;;;1.38;;
35150;SDS011;55720;51.972;4.624;2022-07-29T08:39:02;5.30;;;1.38;;
35150;SDS011;55720;51.972;4.624;2022-07-29T08:41:28;3.03;;;1.58;;
35150;SDS011;55720;51.972;4.624;2022-07-29T08:43:53;4.47;;;1.30;;
35150;SDS011;55720;51.972;4.624;2022-07-29T08:46:19;2.45;;;1.42;;
35150;SDS011;55720;51.972;4.624;2022-07-29T08:48:46;2.33;;;1.20;;
35150;SDS011;55720;51.972;4.624;2022-07-29T08:51:13;2.35;;;1.45;;
35150;SDS011;55720;51.972;4.624;2022-07-29T08:53:41;3.63;;;1.40;;
35150;SDS011;55720;51.972;4.624;2022-07-29T08:56:07;2.38;;;1.23;;
35150;SDS011;55720;51.972;4.624;2022-07-29T08:58:36;4.47;;;1.60;;
35150;SDS011;55720;51.972;4.624;2022-07-29T09:01:02;3.05;;;1.50;;
35150;SDS011;55720;51.972;4.624;2022-07-29T09:03:31;4.57;;;1.20;;
35150;SDS011;55720;51.972;4.624;2022-07-29T09:05:59;2.15;;;1.38;;
35150;SDS011;55720;51.972;4.624;2022-07-29T09:08:26;1.55;;;1.45;;
35150;SDS011;55720;51.972;4.624;2022-07-29T09:10:53;4.13;;;1.20;;
35150;SDS011;55720;51.972;4.624;2022-07-29T09:13:20;2.35;;;1.10;;
35150;SDS011;55720;51.972;4.624;2022-07-29T09:15:49;5.82;;;1.40;;
35150;SDS011;55720;51.972;4.624;2022-07-29T09:21:07;6.60;;;1.70;;
35150;SDS011;55720;51.972;4.624;2022-07-29T09:24:04;2.30;;;1.52;;
35150;SDS011;55720;51.972;4.624;2022-07-29T09:26:33;4.05;;;1.70;;
35150;SDS011;55720;51.972;4.624;2022-07-29T09:29:08;3.58;;;1.48;;
35150;SDS011;55720;51.972;4.624;2022-07-29T09:31:47;3.88;;;1.80;;
35150;SDS011;55720;51.972;4.624;2022-07-29T09:34:17;4.57;;;1.52;;
35150;SDS011;55720;51.972;4.624;2022-07-29T09:36:47;1.80;;;1.65;;
35150;SDS011;55720;51.972;4.624;2022-07-29T09:39:15;3.78;;;1.73;;
35150;SDS011;55720;51.972;4.624;2022-07-29T09:41:52;2.35;;;1.30;;
35150;SDS011;55720;51.972;4.624;2022-07-29T09:44:19;3.70;;;1.60;;
35150;SDS011;55720;51.972;4.624;2022-07-29T09:49:23;2.55;;;1.67;;
35150;SDS011;55720;51.972;4.624;2022-07-29T09:54:45;3.47;;;1.58;;
35150;SDS011;55720;51.972;4.624;2022-07-29T09:57:21;2.85;;;1.50;;
35150;SDS011;55720;51.972;4.624;2022-07-29T09:59:58;4.28;;;2.28;;
35150;SDS011;55720;51.972;4.624;2022-07-29T10:02:35;2.85;;;1.50;;
35150;SDS011;55720;51.972;4.624;2022-07-29T10:05:02;3.22;;;1.90;;
35150;SDS011;55720;51.972;4.624;2022-07-29T10:07:50;3.55;;;1.95;;
35150;SDS011;55720;51.972;4.624;2022-07-29T10:13:06;5.10;;;1.70;;
35150;SDS011;55720;51.972;4.624;2022-07-29T10:15:36;1.92;;;1.60;;
35150;SDS011;55720;51.972;4.624;2022-07-29T10:18:09;3.33;;;1.60;;
35150;SDS011;55720;51.972;4.624;2022-07-29T10:23:01;3.53;;;1.55;;
35150;SDS011;55720;51.972;4.624;2022-07-29T10:25:27;1.45;;;1.35;;
35150;SDS011;55720;51.972;4.624;2022-07-29T10:27:53;4.00;;;1.60;;
35150;SDS011;55720;51.972;4.624;2022-07-29T10:30:20;2.70;;;1.70;;
35150;SDS011;55720;51.972;4.624;2022-07-29T10:43:51;7.88;;;1.90;;
35150;SDS011;55720;51.972;4.624;2022-07-29T10:46:27;3.90;;;1.48;;
35150;SDS011;55720;51.972;4.624;2022-07-29T10:49:10;5.72;;;1.60;;
35150;SDS011;55720;51.972;4.624;2022-07-29T10:54:36;1.58;;;1.30;;
35150;SDS011;55720;51.972;4.624;2022-07-29T10:59:39;3.55;;;1.75;;
35150;SDS011;55720;51.972;4.624;2022-07-29T11:07:22;4.13;;;1.23;;
35150;SDS011;55720;51.972;4.624;2022-07-29T11:20:37;4.10;;;1.20;;
35150;SDS011;55720;51.972;4.624;2022-07-29T11:28:48;4.53;;;1.30;;
35150;SDS011;55720;51.972;4.624;2022-07-29T11:31:17;3.22;;;1.20;;
35150;SDS011;55720;51.972;4.624;2022-07-29T11:33:57;2.58;;;1.15;;
35150;SDS011;55720;51.972;4.624;2022-07-29T11:37:12;5.07;;;1.20;;
35150;SDS011;55720;51.972;4.624;2022-07-29T11:39:31;3.35;;;1.52;;
35150;SDS011;55720;51.972;4.624;2022-07-29T11:45:03;3.20;;;1.40;;
35150;SDS011;55720;51.972;4.624;2022-07-29T11:47:31;2.33;;;1.30;;
35150;SDS011;55720;51.972;4.624;2022-07-29T11:50:02;2.80;;;1.42;;
35150;SDS011;55720;51.972;4.624;2022-07-29T11:52:33;2.00;;;1.30;;
35150;SDS011;55720;51.972;4.624;2022-07-29T11:55:03;2.03;;;1.10;;
35150;SDS011;55720;51.972;4.624;2022-07-29T11:57:31;2.63;;;0.90;;
35150;SDS011;55720;51.972;4.624;2022-07-29T11:59:59;1.23;;;1.00;;
35150;SDS011;55720;51.972;4.624;2022-07-29T12:02:25;2.08;;;0.88;;
35150;SDS011;55720;51.972;4.624;2022-07-29T12:05:03;4.50;;;1.15;;
35150;SDS011;55720;51.972;4.624;2022-07-29T12:07:32;4.75;;;1.33;;
35150;SDS011;55720;51.972;4.624;2022-07-29T12:09:59;2.90;;;1.13;;
35150;SDS011;55720;51.972;4.624;2022-07-29T12:12:24;1.90;;;1.25;;
35150;SDS011;55720;51.972;4.624;2022-07-29T12:14:49;1.00;;;0.90;;
35150;SDS011;55720;51.972;4.624;2022-07-29T12:17:28;4.10;;;0.85;;
35150;SDS011;55720;51.972;4.624;2022-07-29T12:19:56;2.13;;;1.35;;
35150;SDS011;55720;51.972;4.624;2022-07-29T12:25:00;9.23;;;1.67;;
35150;SDS011;55720;51.972;4.624;2022-07-29T12:27:31;2.85;;;2.00;;
35150;SDS011;55720;51.972;4.624;2022-07-29T12:30:02;1.52;;;1.42;;
35150;SDS011;55720;51.972;4.624;2022-07-29T12:32:36;5.35;;;1.63;;
35150;SDS011;55720;51.972;4.624;2022-07-29T12:35:07;2.30;;;1.50;;
35150;SDS011;55720;51.972;4.624;2022-07-29T12:37:35;3.97;;;1.77;;
35150;SDS011;55720;51.972;4.624;2022-07-29T12:40:02;6.05;;;1.60;;
35150;SDS011;55720;51.972;4.624;2022-07-29T12:42:29;3.50;;;1.70;;
35150;SDS011;55720;51.972;4.624;2022-07-29T12:44:55;3.60;;;1.90;;
35150;SDS011;55720;51.972;4.624;2022-07-29T12:47:21;4.05;;;1.80;;
35150;SDS011;55720;51.972;4.624;2022-07-29T12:49:48;2.28;;;1.63;;
35150;SDS011;55720;51.972;4.624;2022-07-29T12:52:28;3.85;;;1.70;;
35150;SDS011;55720;51.972;4.624;2022-07-29T12:54:57;3.22;;;1.48;;
35150;SDS011;55720;51.972;4.624;2022-07-29T12:57:23;2.92;;;1.40;;
35150;SDS011;55720;51.972;4.624;2022-07-29T13:00:03;4.38;;;1.55;;
35150;SDS011;55720;51.972;4.624;2022-07-29T13:02:34;2.22;;;1.42;;
35150;SDS011;55720;51.972;4.624;2022-07-29T13:05:00;2.65;;;1.50;;
35150;SDS011;55720;51.972;4.624;2022-07-29T13:07:28;2.30;;;1.10;;
35150;SDS011;55720;51.972;4.624;2022-07-29T13:09:58;4.40;;;1.35;;
35150;SDS011;55720;51.972;4.624;2022-07-29T13:12:35;2.92;;;1.60;;
35150;SDS011;55720;51.972;4.624;2022-07-29T13:15:11;4.22;;;1.80;;
35150;SDS011;55720;51.972;4.624;2022-07-29T13:17:42;4.13;;;1.67;;
35150;SDS011;55720;51.972;4.624;2022-07-29T13:22:37;2.45;;;1.55;;
35150;SDS011;55720;51.972;4.624;2022-07-29T13:25:03;5.60;;;1.60;;
35150;SDS011;55720;51.972;4.624;2022-07-29T13:27:31;5.93;;;1.60;;
35150;SDS011;55720;51.972;4.624;2022-07-29T13:29:59;6.50;;;1.92;;
35150;SDS011;55720;51.972;4.624;2022-07-29T13:32:26;2.55;;;1.58;;
35150;SDS011;55720;51.972;4.624;2022-07-29T13:34:54;4.25;;;1.83;;
35150;SDS011;55720;51.972;4.624;2022-07-29T13:37:21;4.15;;;1.35;;
35150;SDS011;55720;51.972;4.624;2022-07-29T13:39:46;2.75;;;1.58;;
35150;SDS011;55720;51.972;4.624;2022-07-29T13:42:12;7.65;;;1.40;;
35150;SDS011;55720;51.972;4.624;2022-07-29T13:44:38;2.47;;;1.33;;
35150;SDS011;55720;51.972;4.624;2022-07-29T13:47:04;3.15;;;1.40;;
35150;SDS011;55720;51.972;4.624;2022-07-29T13:49:30;3.70;;;1.30;;
35150;SDS011;55720;51.972;4.624;2022-07-29T13:51:56;12.38;;;1.65;;
35150;SDS011;55720;51.972;4.624;2022-07-29T13:54:21;4.13;;;1.55;;
35150;SDS011;55720;51.972;4.624;2022-07-29T13:56:47;3.92;;;1.10;;
35150;SDS011;55720;51.972;4.624;2022-07-29T13:59:12;2.45;;;1.10;;
35150;SDS011;55720;51.972;4.624;2022-07-29T14:01:38;3.25;;;1.55;;
35150;SDS011;55720;51.972;4.624;2022-07-29T14:04:06;2.30;;;1.35;;
35150;SDS011;55720;51.972;4.624;2022-07-29T14:06:31;3.20;;;1.40;;
35150;SDS011;55720;51.972;4.624;2022-07-29T14:08:57;3.10;;;1.38;;
35150;SDS011;55720;51.972;4.624;2022-07-29T14:11:22;2.78;;;1.67;;
35150;SDS011;55720;51.972;4.624;2022-07-29T14:13:48;7.05;;;2.63;;
35150;SDS011;55720;51.972;4.624;2022-07-29T14:16:13;3.33;;;1.20;;
35150;SDS011;55720;51.972;4.624;2022-07-29T14:18:38;5.15;;;1.38;;
35150;SDS011;55720;51.972;4.624;2022-07-29T14:21:04;2.33;;;1.15;;
35150;SDS011;55720;51.972;4.624;2022-07-29T14:23:29;2.90;;;1.25;;
35150;SDS011;55720;51.972;4.624;2022-07-29T14:25:55;9.45;;;1.23;;
35150;SDS011;55720;51.972;4.624;2022-07-29T14:28:20;3.92;;;1.20;;
35150;SDS011;55720;51.972;4.624;2022-07-29T14:30:46;2.58;;;0.93;;
35150;SDS011;55720;51.972;4.624;2022-07-29T14:33:11;1.52;;;0.90;;
35150;SDS011;55720;51.972;4.624;2022-07-29T14:35:37;6.30;;;1.17;;
35150;SDS011;55720;51.972;4.624;2022-07-29T14:38:03;1.58;;;1.20;;
35150;SDS011;55720;51.972;4.624;2022-07-29T14:40:28;3.20;;;1.10;;
35150;SDS011;55720;51.972;4.624;2022-07-29T14:42:54;1.70;;;1.00;;
35150;SDS011;55720;51.972;4.624;2022-07-29T14:45:19;5.88;;;1.73;;
35150;SDS011;55720;51.972;4.624;2022-07-29T14:47:45;1.75;;;1.00;;
35150;SDS011;55720;51.972;4.624;2022-07-29T14:50:10;2.15;;;1.20;;
35150;SDS011;55720;51.972;4.624;2022-07-29T14:52:36;3.60;;;1.38;;
35150;SDS011;55720;51.972;4.624;2022-07-29T14:55:01;2.53;;;1.05;;
35150;SDS011;55720;51.972;4.624;2022-07-29T14:57:27;1.73;;;1.20;;
35150;SDS011;55720;51.972;4.624;2022-07-29T14:59:53;2.42;;;1.30;;
35150;SDS011;55720;51.972;4.624;2022-07-29T15:02:18;2.67;;;1.30;;
35150;SDS011;55720;51.972;4.624;2022-07-29T15:04:44;5.15;;;1.20;;
35150;SDS011;55720;51.972;4.624;2022-07-29T15:07:11;4.05;;;1.33;;
35150;SDS011;55720;51.972;4.624;2022-07-29T15:09:37;2.47;;;1.10;;
35150;SDS011;55720;51.972;4.624;2022-07-29T15:12:02;4.00;;;1.02;;
35150;SDS011;55720;51.972;4.624;2022-07-29T15:14:28;4.38;;;1.15;;
35150;SDS011;55720;51.972;4.624;2022-07-29T15:16:54;5.45;;;1.40;;
35150;SDS011;55720;51.972;4.624;2022-07-29T15:19:19;3.58;;;1.05;;
35150;SDS011;55720;51.972;4.624;2022-07-29T15:21:45;3.55;;;1.08;;
35150;SDS011;55720;51.972;4.624;2022-07-29T15:24:10;2.45;;;1.00;;
35150;SDS011;55720;51.972;4.624;2022-07-29T15:26:35;2.63;;;1.15;;
35150;SDS011;55720;51.972;4.624;2022-07-29T15:29:01;5.38;;;1.27;;
35150;SDS011;55720;51.972;4.624;2022-07-29T15:31:26;2.88;;;1.00;;
35150;SDS011;55720;51.972;4.624;2022-07-29T15:33:52;4.43;;;1.20;;
35150;SDS011;55720;51.972;4.624;2022-07-29T15:36:17;5.07;;;1.88;;
35150;SDS011;55720;51.972;4.624;2022-07-29T15:38:42;3.45;;;1.13;;
35150;SDS011;55720;51.972;4.624;2022-07-29T15:41:09;3.13;;;1.00;;
35150;SDS011;55720;51.972;4.624;2022-07-29T15:43:34;2.83;;;1.10;;
35150;SDS011;55720;51.972;4.624;2022-07-29T15:46:00;2.95;;;1.23;;
35150;SDS011;55720;51.972;4.624;2022-07-29T15:48:44;2.15;;;1.02;;
35150;SDS011;55720;51.972;4.624;2022-07-29T15:51:10;6.05;;;1.05;;
35150;SDS011;55720;51.972;4.624;2022-07-29T15:53:35;4.25;;;1.20;;
35150;SDS011;55720;51.972;4.624;2022-07-29T15:56:01;5.00;;;1.10;;
35150;SDS011;55720;51.972;4.624;2022-07-29T15:58:26;5.88;;;1.20;;
35150;SDS011;55720;51.972;4.624;2022-07-29T16:00:52;3.08;;;1.15;;
35150;SDS011;55720;51.972;4.624;2022-07-29T16:03:17;2.55;;;1.10;;
35150;SDS011;55720;51.972;4.624;2022-07-29T16:05:43;6.18;;;1.05;;